地図

経路データ

SID SEASON NUMBER BASIN SUBBASIN NAME ISO_TIME NATURE LAT LON WMO_WIND WMO_PRES WMO_AGENCY TRACK_TYPE DIST2LAND LANDFALL IFLAG USA_AGENCY USA_ATCF_ID USA_LAT USA_LON USA_RECORD USA_STATUS USA_WIND USA_PRES USA_SSHS USA_R34_NE USA_R34_SE USA_R34_SW USA_R34_NW USA_R50_NE USA_R50_SE USA_R50_SW USA_R50_NW USA_R64_NE USA_R64_SE USA_R64_SW USA_R64_NW USA_POCI USA_ROCI USA_RMW USA_EYE TOKYO_LAT TOKYO_LON TOKYO_GRADE TOKYO_WIND TOKYO_PRES TOKYO_R50_DIR TOKYO_R50_LONG TOKYO_R50_SHORT TOKYO_R30_DIR TOKYO_R30_LONG TOKYO_R30_SHORT TOKYO_LAND CMA_LAT CMA_LON CMA_CAT CMA_WIND CMA_PRES HKO_LAT HKO_LON HKO_CAT HKO_WIND HKO_PRES NEWDELHI_LAT NEWDELHI_LON NEWDELHI_GRADE NEWDELHI_WIND NEWDELHI_PRES NEWDELHI_CI NEWDELHI_DP NEWDELHI_POCI REUNION_LAT REUNION_LON REUNION_TYPE REUNION_WIND REUNION_PRES REUNION_TNUM REUNION_CI REUNION_RMW REUNION_R34_NE REUNION_R34_SE REUNION_R34_SW REUNION_R34_NW REUNION_R50_NE REUNION_R50_SE REUNION_R50_SW REUNION_R50_NW REUNION_R64_NE REUNION_R64_SE REUNION_R64_SW REUNION_R64_NW BOM_LAT BOM_LON BOM_TYPE BOM_WIND BOM_PRES BOM_TNUM BOM_CI BOM_RMW BOM_R34_NE BOM_R34_SE BOM_R34_SW BOM_R34_NW BOM_R50_NE BOM_R50_SE BOM_R50_SW BOM_R50_NW BOM_R64_NE BOM_R64_SE BOM_R64_SW BOM_R64_NW BOM_ROCI BOM_POCI BOM_EYE BOM_POS_METHOD BOM_PRES_METHOD NADI_LAT NADI_LON NADI_CAT NADI_WIND NADI_PRES WELLINGTON_LAT WELLINGTON_LON WELLINGTON_WIND WELLINGTON_PRES DS824_LAT DS824_LON DS824_STAGE DS824_WIND DS824_PRES TD9636_LAT TD9636_LON TD9636_STAGE TD9636_WIND TD9636_PRES TD9635_LAT TD9635_LON TD9635_WIND TD9635_PRES TD9635_ROCI NEUMANN_LAT NEUMANN_LON NEUMANN_CLASS NEUMANN_WIND NEUMANN_PRES MLC_LAT MLC_LON MLC_CLASS MLC_WIND MLC_PRES USA_GUST BOM_GUST BOM_GUST_PER REUNION_GUST REUNION_GUST_PER USA_SEAHGT USA_SEARAD_NE USA_SEARAD_SE USA_SEARAD_SW USA_SEARAD_NW STORM_SPEED STORM_DIR
1923084S11153 1923 24 SP EA NOT_NAMED 1923-03-24 23:00:00 NR -10.9000 153.200 main 275 264 __________O___ -1 -10.9000 153.200 7 7 252
1923084S11153 1923 24 SP EA NOT_NAMED 1923-03-25 00:00:00 NR -10.9339 153.091 main 264 233 __________P___ -1 -10.9339 153.091 7 7 253
1923084S11153 1923 24 SP EA NOT_NAMED 1923-03-25 03:00:00 NR -11.0354 152.759 main 233 194 __________P___ -1 -11.0354 152.759 7 7 253
1923084S11153 1923 24 SP EA NOT_NAMED 1923-03-25 06:00:00 NR -11.1359 152.417 main 194 167 __________P___ -1 -11.1359 152.417 7 7 254
1923084S11153 1923 24 SP EA NOT_NAMED 1923-03-25 09:00:00 NR -11.2350 152.055 main 167 143 __________P___ -1 -11.2350 152.055 7 8 255
1923084S11153 1923 24 SP EA NOT_NAMED 1923-03-25 11:00:00 NR -11.3000 151.800 main 143 134 __________O___ -1 -11.3000 151.800 7 8 256
1923084S11153 1923 24 SP EA NOT_NAMED 1923-03-25 12:00:00 NR -11.3321 151.667 main 134 111 __________P___ -1 -11.3321 151.667 7 8 257
1923084S11153 1923 24 SP EA NOT_NAMED 1923-03-25 15:00:00 NR -11.4244 151.259 main 111 99 __________P___ -1 -11.4244 151.259 7 8 258
1923084S11153 1923 24 SP EA NOT_NAMED 1923-03-25 18:00:00 NR -11.5058 150.860 main 103 92 __________P___ -1 -11.5058 150.860 7 8 259
1923084S11153 1923 24 SP EA NOT_NAMED 1923-03-25 21:00:00 NR -11.5699 150.501 main 101 100 __________P___ -1 -11.5699 150.501 7 7 260
1923084S11153 1923 24 SP EA NOT_NAMED 1923-03-25 23:00:00 NR -11.6000 150.300 main 100 100 __________O___ -1 -11.6000 150.300 7 6 261
1923084S11153 1923 24 SP EA NOT_NAMED 1923-03-26 00:00:00 NR -11.6112 150.222 main 100 100 __________P___ -1 -11.6112 150.222 7 4 264
1923084S11153 1923 24 SP EA NOT_NAMED 1923-03-26 03:00:00 NR -11.6288 150.040 main 103 103 __________P___ -1 -11.6288 150.040 7 3 267
1923084S11153 1923 24 SP EA NOT_NAMED 1923-03-26 06:00:00 NR -11.6274 149.906 main 105 105 __________P___ -1 -11.6274 149.906 7 2 274
1923084S11153 1923 24 SP EA NOT_NAMED 1923-03-26 09:00:00 NR -11.6134 149.788 main 109 109 __________P___ -1 -11.6134 149.788 7 2 278
1923084S11153 1923 24 SP EA NOT_NAMED 1923-03-26 11:00:00 NR -11.6000 149.700 main 114 114 __________O___ -1 -11.6000 149.700 7 3 277
1923084S11153 1923 24 SP EA NOT_NAMED 1923-03-26 12:00:00 NR -11.5950 149.636 main 116 116 __________P___ -1 -11.5950 149.636 7 4 276
1923084S11153 1923 24 SP EA NOT_NAMED 1923-03-26 15:00:00 NR -11.5746 149.433 main 124 124 __________P___ -1 -11.5746 149.433 7 4 277
1923084S11153 1923 24 SP EA NOT_NAMED 1923-03-26 18:00:00 NR -11.5484 149.223 main 126 126 __________P___ -1 -11.5484 149.223 7 4 278
1923084S11153 1923 24 SP EA NOT_NAMED 1923-03-26 21:00:00 NR -11.5193 149.021 main 134 134 __________P___ -1 -11.5193 149.021 7 4 279
1923084S11153 1923 24 SP EA NOT_NAMED 1923-03-26 23:00:00 NR -11.5000 148.900 main 134 134 __________O___ -1 -11.5000 148.900 7 3 279
1923084S11153 1923 24 SP EA NOT_NAMED 1923-03-27 00:00:00 NR -11.4916 148.848 main 136 136 __________P___ -1 -11.4916 148.848 7 3 280
1923084S11153 1923 24 SP EA NOT_NAMED 1923-03-27 03:00:00 NR -11.4666 148.710 main 138 130 __________P___ -1 -11.4666 148.710 7 3 281
1923084S11153 1923 24 SP EA NOT_NAMED 1923-03-27 06:00:00 NR -11.4416 148.589 main 130 130 __________P___ -1 -11.4416 148.589 7 2 282
1923084S11153 1923 24 SP EA NOT_NAMED 1923-03-27 09:00:00 NR -11.4166 148.475 main 134 134 __________P___ -1 -11.4166 148.475 7 2 283
1923084S11153 1923 24 SP EA NOT_NAMED 1923-03-27 11:00:00 NR -11.4000 148.400 main 134 134 __________O___ -1 -11.4000 148.400 7 2 282
1923084S11153 1923 24 SP EA NOT_NAMED 1923-03-27 12:00:00 NR -11.3941 148.367 main 134 134 __________P___ -1 -11.3941 148.367 7 2 280
1923084S11153 1923 24 SP EA NOT_NAMED 1923-03-27 15:00:00 NR -11.3774 148.271 main 134 134 __________P___ -1 -11.3774 148.271 7 2 280
1923084S11153 1923 24 SP EA NOT_NAMED 1923-03-27 18:00:00 NR -11.3574 148.164 main 136 123 __________P___ -1 -11.3574 148.164 7 2 281
1923084S11153 1923 24 SP EA NOT_NAMED 1923-03-27 21:00:00 NR -11.3279 148.023 main 123 123 __________P___ -1 -11.3279 148.023 7 3 282
1923084S11153 1923 24 SP EA NOT_NAMED 1923-03-27 23:00:00 NR -11.3000 147.900 main 123 123 __________O___ -1 -11.3000 147.900 7 4 283
1923084S11153 1923 24 SP EA NOT_NAMED 1923-03-28 00:00:00 NR -11.2830 147.826 main 125 116 __________P___ -1 -11.2830 147.826 7 5 284
1923084S11153 1923 24 SP EA NOT_NAMED 1923-03-28 03:00:00 NR -11.2213 147.566 main 120 120 __________P___ -1 -11.2213 147.566 7 6 284
1923084S11153 1923 24 SP EA NOT_NAMED 1923-03-28 06:00:00 NR -11.1462 147.262 main 120 120 __________P___ -1 -11.1462 147.262 7 6 284
1923084S11153 1923 24 SP EA NOT_NAMED 1923-03-28 09:00:00 NR -11.0609 146.930 main 142 133 __________P___ -1 -11.0609 146.930 7 7 285
1923084S11153 1923 24 SP EA NOT_NAMED 1923-03-28 11:00:00 NR -11.0000 146.700 main 148 148 __________O___ -1 -11.0000 146.700 7 7 286
1923084S11153 1923 24 SP EA NOT_NAMED 1923-03-28 12:00:00 NR -10.9663 146.585 main 156 156 __________P___ -1 -10.9663 146.585 7 7 287
1923084S11153 1923 24 SP EA NOT_NAMED 1923-03-28 15:00:00 NR -10.8584 146.227 main 185 175 __________P___ -1 -10.8584 146.227 7 7 287
1923084S11153 1923 24 SP EA NOT_NAMED 1923-03-28 18:00:00 NR -10.7495 145.865 main 188 188 __________P___ -1 -10.7495 145.865 7 7 286
1923084S11153 1923 24 SP EA NOT_NAMED 1923-03-28 21:00:00 NR -10.6522 145.516 main 219 211 __________P___ -1 -10.6522 145.516 7 7 285
1923084S11153 1923 24 SP EA NOT_NAMED 1923-03-28 23:00:00 NR -10.6000 145.300 main 227 227 __________O___ -1 -10.6000 145.300 7 6 284
1923084S11153 1923 24 SP EA NOT_NAMED 1923-03-29 00:00:00 NR -10.5778 145.205 main 235 235 __________P___ -1 -10.5778 145.205 7 5 282
1923084S11153 1923 24 SP EA NOT_NAMED 1923-03-29 03:00:00 NR -10.5264 144.941 main 235 218 __________P___ -1 -10.5264 144.941 7 5 279
1923084S11153 1923 24 SP EA NOT_NAMED 1923-03-29 06:00:00 NR -10.4977 144.698 main 218 197 __________P___ -1 -10.4977 144.698 7 5 274
1923084S11153 1923 24 SP EA NOT_NAMED 1923-03-29 09:00:00 NR -10.4915 144.462 main 197 177 __________P___ -1 -10.4915 144.462 7 5 270
1923084S11153 1923 24 SP EA NOT_NAMED 1923-03-29 11:00:00 NR -10.5000 144.300 main 177 167 __________O___ -1 -10.5000 144.300 7 5 267
1923084S11153 1923 24 SP EA NOT_NAMED 1923-03-29 12:00:00 NR -10.5041 144.209 main 167 137 __________P___ -1 -10.5041 144.209 7 5 265
1923084S11153 1923 24 SP EA NOT_NAMED 1923-03-29 15:00:00 NR -10.5321 143.930 main 137 113 __________P___ -1 -10.5321 143.930 7 6 262
1923084S11153 1923 24 SP EA NOT_NAMED 1923-03-29 18:00:00 NR -10.5809 143.649 main 103 86 __________P___ -1 -10.5809 143.649 7 6 258
1923084S11153 1923 24 SP EA NOT_NAMED 1923-03-29 21:00:00 NR -10.6474 143.375 main 86 62 __________P___ -1 -10.6474 143.375 7 5 255
1923084S11153 1923 24 SP EA NOT_NAMED 1923-03-29 23:00:00 NR -10.7000 143.200 main 62 55 __________O___ -1 -10.7000 143.200 7 5 252
1923084S11153 1923 24 SP EA NOT_NAMED 1923-03-30 00:00:00 NR -10.7291 143.116 main 55 31 __________P___ -1 -10.7291 143.116 7 5 248
1923084S11153 1923 24 SP EA NOT_NAMED 1923-03-30 03:00:00 NR -10.8283 142.873 main 31 11 __________P___ -1 -10.8283 142.873 7 5 246
1923084S11153 1923 24 SP EA NOT_NAMED 1923-03-30 06:00:00 NR -10.9360 142.646 main 11 0 __________P___ -1 -10.9360 142.646 7 5 244
1923084S11153 1923 24 SP EA NOT_NAMED 1923-03-30 09:00:00 NR -11.0395 142.433 main 0 0 __________P___ -1 -11.0395 142.433 7 5 244
1923084S11153 1923 24 SP EA NOT_NAMED 1923-03-30 11:00:00 NR -11.1000 142.300 main 0 0 __________O___ -1 -11.1000 142.300 7 4 249
1923084S11153 1923 24 SP EA NOT_NAMED 1923-03-30 12:00:00 NR -11.1009 142.265 main 0 0 __________P___ -1 -11.1009 142.265 7 2 278
1923084S11153 1923 24 SP EA NOT_NAMED 1923-03-30 15:00:00 NR -11.0835 142.185 main 0 0 __________P___ -1 -11.0835 142.185 7 2 275
1923084S11153 1923 24 SP EA NOT_NAMED 1923-03-30 18:00:00 NR -11.0849 142.075 main 10 10 __________P___ -1 -11.0849 142.075 7 3 256
1923084S11153 1923 24 SP EA NOT_NAMED 1923-03-30 21:00:00 NR -11.1681 141.853 main 31 31 __________P___ -1 -11.1681 141.853 7 6 245
1923084S11153 1923 24 SP EA NOT_NAMED 1923-03-30 23:00:00 NR -11.3000 141.600 main 58 58 __________O___ -1 -11.3000 141.600 7 10 241
1923084S11153 1923 24 SP EA NOT_NAMED 1923-03-31 00:00:00 NR -11.4005 141.419 main 77 77 __________P___ -1 -11.4005 141.419 7 15 240
1923084S11153 1923 24 SP EA NOT_NAMED 1923-03-31 03:00:00 NR -11.7985 140.737 main 117 117 __________P___ -1 -11.7985 140.737 7 17 238
1923084S11153 1923 24 SP EA NOT_NAMED 1923-03-31 06:00:00 NR -12.3091 139.907 main 187 187 __________P___ -1 -12.3091 139.907 7 20 237
1923084S11153 1923 24 SP EA NOT_NAMED 1923-03-31 09:00:00 NR -12.8915 139.004 main 227 171 __________P___ -1 -12.8915 139.004 7 21 236
1923084S11153 1923 24 SP EA NOT_NAMED 1923-03-31 11:00:00 NR -13.3000 138.400 main 171 144 __________O___ -1 -13.3000 138.400 7 21 235
1923084S11153 1923 24 SP EA NOT_NAMED 1923-03-31 12:00:00 NR -13.5062 138.105 main 134 39 __________P___ -1 -13.5062 138.105 7 21 233
1923084S11153 1923 24 SP EA NOT_NAMED 1923-03-31 15:00:00 NR -14.1284 137.250 main 39 0 __________P___ -1 -14.1284 137.250 7 21 232
1923084S11153 1923 24 SP EA NOT_NAMED 1923-03-31 18:00:00 NR -14.7544 136.430 main 59 0 __________P___ -1 -14.7544 136.430 7 20 231
1923084S11153 1923 24 SP EA NOT_NAMED 1923-03-31 21:00:00 NR -15.3820 135.630 main 0 0 __________P___ -1 -15.3820 135.630 7 20 231
1923084S11153 1923 24 SP EA NOT_NAMED 1923-03-31 23:00:00 NR -15.8000 135.100 main 0 __________O___ -1 -15.8000 135.100 7 20 231

デジタル台風データ・検索

IBTrACS Databaseについて

本データベースは、米国NOAAが公開する1842年以降の世界の熱帯低気圧のベストトラックデータアーカイブInternational Best Track Archive for Climate Stewardship (IBTrACS)を、ウェブで閲覧しやすい形式に変換したものです。

最終更新日:2021-12-03